Portada
METAR-TAF:

METAR-TAF

Aeroports :

Knoxville Municipal Airport

Knoxville, Iowa, Estats Units d'Amèrica

latitud: 41-18N, longitud: 093-07W, altitud: 283 m

Observació

L'informe es va fer fa 1 hora i 29 minuts, a les 16:55 UTC
Vent 7 kt del Sud-Oest amb ràfegues de 16 kt, variant entre Sud/Sud-Oest i Oest
Temperatura 27°C
Humitat 66%
Pressió 1011 hPa
Visibilitat: 16.1 km
Cel clar

METAR: KOXV 251655Z AUTO 22007G16KT 200V260 10SM CLR 27/20 A2986 RMK AO2

Hora: 13:24 (18:24 UTC)


TAF: manca

Observacions i pronòstics meteorològics de més de 4000 aeroports (METAR i TAF).

Les estacions disponibles són els punts grocs i vermells al mapa.

Posi el ratolí al punt desitjat per veure el nom de l'estació.

Feu clic per veure les observacions i els pronòstics meteorològics.

Per canviar el mapa: feu clic els botons verds amb una creu de color negre per apropar; al botó verd amb un guió per allunyar la imatge; o en les fletxes verdes per a mapes adjacents.


METAR-TAF: